createdAt,value
2023-08-15T00:01:11.004Z,74.40
2023-08-15T00:03:37.825Z,74.50
2023-08-15T00:06:04.569Z,74.50
2023-08-15T00:08:31.250Z,74.60
2023-08-15T00:10:57.954Z,74.70
2023-08-15T00:13:24.625Z,74.70
2023-08-15T00:15:51.308Z,74.90
2023-08-15T00:18:18.029Z,74.90
2023-08-15T00:20:48.484Z,75.10
2023-08-15T00:23:15.783Z,75.10
2023-08-15T00:25:43.735Z,75.20
2023-08-15T00:28:10.528Z,75.30
2023-08-15T00:30:37.413Z,75.30
2023-08-15T00:33:04.287Z,76.30
2023-08-15T00:35:31.067Z,75.30
2023-08-15T00:37:57.910Z,75.50
2023-08-15T00:40:24.776Z,75.50
2023-08-15T01:19:55.916Z,74.50
2023-08-15T01:22:26.209Z,74.50
2023-08-15T01:24:53.149Z,74.40
2023-08-15T01:27:20.189Z,74.30
2023-08-15T01:29:47.787Z,74.30
2023-08-15T01:32:21.131Z,74.20
2023-08-15T01:35:12.486Z,74.20
2023-08-15T01:37:45.009Z,74.30
2023-08-15T01:40:16.644Z,74.50
2023-08-15T01:42:43.548Z,74.30
2023-08-15T01:45:13.754Z,74.40
2023-08-15T01:47:40.532Z,74.60
2023-08-15T01:50:07.912Z,74.60
2023-08-15T01:52:34.640Z,74.80
2023-08-15T01:55:01.320Z,74.80
2023-08-15T01:57:28.054Z,74.70
2023-08-15T01:59:54.736Z,74.80
2023-08-15T02:02:21.426Z,75.00
2023-08-15T02:04:48.157Z,75.00
2023-08-15T02:07:14.884Z,75.00
2023-08-15T02:09:41.919Z,75.10
2023-08-15T02:12:08.966Z,75.30
2023-08-15T02:14:35.712Z,75.20
2023-08-15T02:17:02.384Z,75.40
2023-08-15T02:19:29.091Z,76.40
2023-08-15T02:21:55.916Z,75.50
2023-08-15T02:24:22.666Z,75.60
2023-08-15T02:26:49.443Z,75.50
2023-08-15T02:29:16.512Z,75.60
2023-08-15T02:31:48.943Z,75.60
2023-08-15T02:34:19.380Z,75.70
2023-08-15T02:36:49.831Z,75.70
2023-08-15T02:39:19.550Z,75.90
2023-08-15T02:41:46.292Z,76.00
2023-08-15T02:44:13.309Z,76.00
2023-08-15T02:46:40.649Z,76.30
2023-08-15T02:49:07.571Z,76.40
2023-08-15T02:51:34.262Z,76.60
2023-08-15T02:54:01.012Z,76.70
2023-08-15T02:56:27.787Z,77.10
2023-08-15T02:58:55.383Z,76.70
2023-08-15T03:01:22.867Z,76.40
2023-08-15T03:03:49.707Z,76.60
2023-08-15T03:06:16.515Z,76.40
2023-08-15T03:08:43.274Z,76.20
2023-08-15T03:11:10.733Z,76.20
2023-08-15T03:13:37.506Z,76.10
2023-08-15T03:16:04.551Z,76.00
2023-08-15T03:18:31.396Z,76.10
2023-08-15T03:21:06.286Z,76.20
2023-08-15T03:23:33.028Z,76.20
2023-08-15T03:26:04.285Z,76.30
2023-08-15T03:28:31.725Z,76.40
2023-08-15T03:30:58.725Z,76.40
2023-08-15T03:33:25.741Z,76.50
2023-08-15T03:35:52.948Z,76.60
2023-08-15T03:38:23.371Z,76.90
2023-08-15T03:41:01.658Z,76.90
2023-08-15T03:43:28.392Z,77.10
2023-08-15T03:45:55.185Z,77.30
2023-08-15T03:48:21.930Z,77.20
2023-08-15T03:50:48.777Z,77.30
2023-08-15T03:53:15.448Z,77.60
2023-08-15T03:55:42.172Z,77.80
2023-08-15T03:58:09.024Z,77.80
2023-08-15T04:00:36.008Z,78.10
2023-08-15T04:03:02.793Z,78.30
2023-08-15T04:05:29.710Z,78.60
2023-08-15T04:07:56.345Z,78.70
2023-08-15T04:10:22.988Z,78.80
2023-08-15T04:12:49.719Z,78.90
2023-08-15T04:15:16.513Z,78.90
2023-08-15T04:17:43.317Z,78.90
2023-08-15T04:20:11.869Z,79.10
2023-08-15T04:22:39.200Z,79.10
2023-08-15T04:25:10.621Z,79.10
2023-08-15T04:27:38.241Z,79.10
2023-08-15T04:30:06.297Z,79.20
2023-08-15T04:32:32.995Z,79.30
2023-08-15T04:34:59.736Z,79.40
2023-08-15T04:37:26.473Z,79.30
2023-08-15T04:39:53.331Z,79.60
2023-08-15T04:42:20.181Z,79.60
2023-08-15T04:44:47.065Z,79.60
2023-08-15T04:47:13.833Z,79.50
2023-08-15T04:49:40.695Z,79.80
2023-08-15T04:52:07.482Z,80.00
2023-08-15T04:54:34.112Z,80.00
2023-08-15T04:57:00.900Z,80.40
2023-08-15T04:59:27.695Z,80.50
2023-08-15T05:01:54.339Z,80.40
2023-08-15T05:04:21.074Z,80.10
2023-08-15T05:06:47.818Z,80.50
2023-08-15T05:09:14.650Z,80.50
2023-08-15T05:11:41.464Z,80.80
2023-08-15T05:14:08.242Z,81.20
2023-08-15T05:16:34.945Z,81.40
2023-08-15T05:19:01.573Z,81.10
2023-08-15T05:21:29.284Z,80.50
2023-08-15T05:23:56.050Z,80.20
2023-08-15T05:26:22.837Z,80.40
2023-08-15T05:28:49.698Z,80.60
2023-08-15T05:31:16.483Z,80.70
2023-08-15T05:33:43.237Z,80.80
2023-08-15T05:36:09.998Z,80.90
2023-08-15T05:38:37.475Z,80.90
2023-08-15T05:41:04.576Z,80.90
2023-08-15T05:43:31.383Z,81.00
2023-08-15T05:45:58.300Z,81.10
2023-08-15T05:48:24.997Z,80.90
2023-08-15T05:50:51.855Z,80.80
2023-08-15T05:53:18.576Z,80.60
2023-08-15T05:55:45.862Z,80.40
2023-08-15T05:58:12.590Z,80.30
2023-08-15T06:00:40.044Z,79.90
2023-08-15T06:03:06.845Z,80.10
2023-08-15T06:05:33.840Z,80.00
2023-08-15T06:08:00.554Z,79.80
2023-08-15T06:10:27.272Z,79.40
2023-08-15T06:12:54.055Z,79.50
2023-08-15T06:15:20.777Z,79.20
2023-08-15T06:17:47.501Z,78.90
2023-08-15T06:20:14.280Z,79.20
2023-08-15T06:22:40.942Z,78.90
2023-08-15T06:25:08.276Z,78.20
2023-08-15T06:27:35.777Z,78.90
2023-08-15T06:30:02.644Z,77.50
2023-08-15T06:32:31.208Z,77.10
2023-08-15T06:34:58.257Z,76.60
2023-08-15T06:37:25.273Z,76.70
2023-08-15T06:39:52.035Z,76.70
2023-08-15T06:42:18.919Z,77.00
2023-08-15T06:44:45.707Z,77.00
2023-08-15T06:47:12.514Z,77.40
2023-08-15T06:49:39.441Z,77.60
2023-08-15T06:52:08.231Z,76.90
2023-08-15T06:54:35.264Z,76.90
2023-08-15T06:57:01.942Z,76.30
2023-08-15T06:59:29.353Z,76.80
2023-08-15T07:01:56.228Z,76.80
2023-08-15T07:04:23.048Z,76.80
2023-08-15T07:06:51.472Z,76.10
2023-08-15T07:09:18.378Z,76.60
2023-08-15T07:11:45.033Z,76.50
2023-08-15T07:14:11.731Z,76.20
2023-08-15T07:16:38.525Z,76.20
2023-08-15T07:19:05.360Z,76.60
2023-08-15T07:21:32.229Z,76.60
2023-08-15T07:23:58.911Z,76.50
2023-08-15T07:26:25.664Z,76.70
2023-08-15T07:28:52.393Z,76.70
2023-08-15T07:31:19.163Z,76.70
2023-08-15T07:33:45.915Z,76.90
2023-08-15T07:36:12.641Z,76.80
2023-08-15T07:38:39.351Z,76.90
2023-08-15T07:41:06.227Z,77.70
2023-08-15T07:43:32.944Z,77.40
2023-08-15T07:45:59.642Z,77.90
2023-08-15T07:48:26.407Z,78.00
2023-08-15T07:50:53.140Z,77.10
2023-08-15T07:53:19.854Z,76.80
2023-08-15T07:55:46.556Z,75.60
2023-08-15T07:58:13.296Z,75.60
2023-08-15T08:00:40.066Z,74.10
2023-08-15T08:03:08.814Z,74.40
2023-08-15T08:05:36.319Z,74.40
2023-08-15T08:08:03.241Z,74.20
2023-08-15T08:10:29.956Z,74.80
2023-08-15T08:12:58.365Z,74.70
2023-08-15T08:15:25.141Z,75.20
2023-08-15T08:17:51.869Z,75.10
2023-08-15T08:20:19.705Z,74.60
2023-08-15T08:22:46.505Z,73.00
2023-08-15T08:25:18.011Z,73.10
2023-08-15T08:27:45.537Z,72.60
2023-08-15T08:30:13.586Z,72.20
2023-08-15T08:32:40.425Z,71.50
2023-08-15T08:35:07.824Z,71.60
2023-08-15T08:37:34.644Z,72.30
2023-08-15T08:40:01.411Z,72.60
2023-08-15T08:42:28.907Z,72.70
2023-08-15T08:47:30.044Z,70.70
2023-08-15T08:49:59.964Z,71.40
2023-08-15T08:52:28.429Z,71.40
2023-08-15T08:54:57.493Z,71.50
2023-08-15T08:57:28.756Z,71.80
2023-08-15T09:00:00.062Z,71.00
2023-08-15T09:02:27.037Z,71.40
2023-08-15T09:04:56.888Z,71.40
2023-08-15T09:07:23.887Z,71.60
2023-08-15T09:09:50.870Z,71.40
2023-08-15T09:12:37.378Z,71.20
2023-08-15T09:15:08.446Z,70.90
2023-08-15T09:17:35.828Z,71.00
2023-08-15T09:20:11.448Z,71.00
2023-08-15T09:22:45.162Z,71.20
2023-08-15T09:25:13.177Z,71.30
2023-08-15T09:27:41.266Z,71.50
2023-08-15T09:30:12.489Z,71.20
2023-08-15T09:32:44.102Z,72.30
2023-08-15T09:35:13.199Z,71.50
2023-08-15T09:37:42.300Z,71.30
2023-08-15T09:40:18.534Z,71.50
2023-08-15T09:42:45.973Z,71.50
2023-08-15T09:45:14.146Z,71.80
2023-08-15T09:47:41.799Z,71.40
2023-08-15T09:50:10.309Z,71.60
2023-08-15T09:52:52.247Z,71.80
2023-08-15T09:55:20.179Z,72.00
2023-08-15T09:57:47.386Z,72.20
2023-08-15T10:00:18.400Z,72.40
2023-08-15T10:03:15.994Z,72.40
2023-08-15T10:05:48.526Z,72.70
2023-08-15T10:08:18.584Z,72.70
2023-08-15T10:10:47.018Z,73.00
2023-08-15T10:13:13.900Z,73.00
2023-08-15T10:15:41.062Z,73.40
2023-08-15T10:18:07.871Z,73.00
2023-08-15T10:20:37.474Z,73.10
2023-08-15T10:23:08.708Z,72.80
2023-08-15T10:25:36.640Z,72.80
2023-08-15T10:28:11.853Z,72.70
2023-08-15T10:30:51.176Z,73.20
2023-08-15T10:33:21.613Z,73.30
2023-08-15T10:35:52.870Z,73.50
2023-08-15T10:38:26.703Z,73.50
2023-08-15T10:41:00.922Z,73.20
2023-08-15T10:43:29.256Z,72.60
2023-08-15T10:45:58.520Z,72.60
2023-08-15T10:48:55.498Z,72.50
2023-08-15T10:51:29.891Z,72.30
2023-08-15T10:54:01.985Z,72.40
2023-08-15T10:56:31.352Z,73.50
2023-08-15T10:58:59.208Z,72.40
2023-08-15T11:01:28.029Z,71.50
2023-08-15T11:03:57.794Z,70.50
2023-08-15T11:06:24.752Z,70.40
2023-08-15T11:08:58.950Z,70.30
2023-08-15T11:11:26.168Z,70.50
2023-08-15T11:13:55.256Z,69.80
2023-08-15T11:16:23.923Z,70.10
2023-08-15T11:18:51.509Z,70.40
2023-08-15T11:21:19.697Z,70.60
2023-08-15T11:23:49.307Z,69.00
2023-08-15T11:26:17.893Z,69.80
2023-08-15T11:28:45.517Z,69.80
2023-08-15T11:33:44.258Z,68.60
2023-08-15T11:36:11.354Z,68.40
2023-08-15T11:38:39.458Z,68.50
2023-08-15T11:41:06.735Z,68.80
2023-08-15T11:43:35.972Z,68.80
2023-08-15T11:46:04.390Z,69.00
2023-08-15T11:48:33.048Z,68.90
2023-08-15T11:51:00.613Z,68.90
2023-08-15T11:53:27.635Z,68.90
2023-08-15T11:55:54.591Z,69.10
2023-08-15T11:58:30.161Z,69.30
2023-08-15T12:01:00.973Z,69.50
2023-08-15T12:03:28.292Z,69.30
2023-08-15T12:05:59.738Z,68.80
2023-08-15T12:08:28.041Z,68.90
2023-08-15T12:10:56.690Z,69.00
2023-08-15T12:13:41.892Z,69.00
2023-08-15T12:16:10.677Z,68.30
2023-08-15T12:18:37.635Z,68.70
2023-08-15T12:21:10.577Z,69.00
2023-08-15T12:23:39.118Z,68.60
2023-08-15T12:26:05.890Z,66.90
2023-08-15T12:28:32.778Z,67.40
2023-08-15T12:30:59.518Z,67.10
2023-08-15T12:33:40.856Z,68.20
2023-08-15T12:36:13.032Z,69.40
2023-08-15T12:38:39.878Z,69.20
2023-08-15T12:41:08.264Z,68.00
2023-08-15T12:43:35.036Z,66.70
2023-08-15T12:46:01.856Z,66.40
2023-08-15T12:48:28.543Z,66.30
2023-08-15T12:50:55.251Z,66.00
2023-08-15T12:53:23.717Z,65.40
2023-08-15T12:55:50.614Z,65.00
2023-08-15T12:58:17.369Z,65.00
2023-08-15T13:00:44.127Z,64.90
2023-08-15T13:03:10.956Z,65.60
2023-08-15T13:05:37.727Z,65.90
2023-08-15T13:08:04.732Z,66.00
2023-08-15T13:10:31.537Z,66.30
2023-08-15T13:12:58.234Z,66.70
2023-08-15T13:15:25.612Z,66.60
2023-08-15T13:17:52.501Z,66.00
2023-08-15T13:20:19.482Z,65.70
2023-08-15T13:22:46.134Z,65.10
2023-08-15T13:25:13.424Z,63.60
2023-08-15T13:27:40.568Z,64.40
2023-08-15T13:30:08.683Z,64.30
2023-08-15T13:32:35.612Z,63.90
2023-08-15T13:35:02.507Z,64.00
2023-08-15T13:37:29.585Z,64.50
2023-08-15T13:39:58.447Z,64.20
2023-08-15T13:42:36.041Z,63.20
2023-08-15T13:45:09.652Z,63.70
2023-08-15T13:47:38.859Z,64.00
2023-08-15T13:50:06.845Z,63.30
2023-08-15T13:52:33.746Z,63.60
2023-08-15T13:55:00.474Z,63.50
2023-08-15T13:57:27.439Z,63.50
2023-08-15T13:59:55.890Z,63.40
2023-08-15T14:02:22.814Z,63.50
2023-08-15T14:04:49.924Z,62.60
2023-08-15T14:07:16.732Z,62.80
2023-08-15T14:09:43.474Z,62.80
2023-08-15T14:12:10.240Z,62.40
2023-08-15T14:14:37.998Z,62.60
2023-08-15T14:17:07.236Z,61.50
2023-08-15T14:19:33.998Z,59.90
2023-08-15T14:22:00.780Z,60.00
2023-08-15T14:24:27.542Z,60.60
2023-08-15T14:26:54.195Z,60.60
2023-08-15T14:29:21.155Z,60.30
2023-08-15T14:31:47.833Z,60.60
2023-08-15T14:34:15.506Z,60.60
2023-08-15T14:36:42.279Z,59.80
2023-08-15T14:39:08.990Z,59.90
2023-08-15T14:41:35.837Z,59.40
2023-08-15T14:44:02.579Z,59.00
2023-08-15T14:46:29.302Z,59.40
2023-08-15T14:48:56.046Z,58.60
2023-08-15T14:51:22.776Z,58.70
2023-08-15T14:53:49.527Z,58.60
2023-08-15T14:56:17.470Z,58.00
2023-08-15T14:58:46.361Z,58.10
2023-08-15T15:01:13.522Z,58.60
2023-08-15T15:03:40.726Z,59.60
2023-08-15T15:06:07.617Z,58.10
2023-08-15T15:08:34.519Z,58.30
2023-08-15T15:11:04.271Z,58.30
2023-08-15T15:13:31.188Z,57.60
2023-08-15T15:15:58.089Z,58.20
2023-08-15T15:18:24.972Z,57.50
2023-08-15T15:20:51.810Z,57.00
2023-08-15T15:23:19.261Z,56.90
2023-08-15T15:25:46.978Z,57.10
2023-08-15T15:28:13.697Z,57.30
2023-08-15T15:30:40.466Z,57.40
2023-08-15T15:33:07.269Z,57.60
2023-08-15T15:35:34.055Z,57.60
2023-08-15T15:38:00.878Z,58.30
2023-08-15T15:40:27.603Z,58.50
2023-08-15T15:42:54.344Z,59.10
2023-08-15T15:45:21.110Z,59.00
2023-08-15T15:47:47.971Z,58.60
2023-08-15T15:50:20.482Z,58.70
2023-08-15T15:52:47.845Z,58.70
2023-08-15T15:55:15.260Z,58.20
2023-08-15T15:57:42.018Z,58.70
2023-08-15T16:00:13.740Z,59.00
2023-08-15T16:02:40.972Z,59.30
2023-08-15T16:05:08.029Z,59.60
2023-08-15T16:07:34.804Z,59.40
2023-08-15T16:10:01.545Z,59.70
2023-08-15T16:12:28.214Z,60.00
2023-08-15T16:14:54.884Z,60.00
2023-08-15T16:17:22.957Z,60.10
2023-08-15T16:19:50.038Z,60.20
2023-08-15T16:22:16.855Z,60.40
2023-08-15T16:24:43.632Z,60.20
2023-08-15T16:27:10.552Z,60.00
2023-08-15T16:29:37.241Z,60.40
2023-08-15T16:32:04.336Z,60.20
2023-08-15T16:34:31.301Z,60.20
2023-08-15T16:36:58.005Z,60.20
2023-08-15T16:39:24.877Z,60.20
2023-08-15T16:41:51.618Z,60.60
2023-08-15T16:44:19.791Z,60.40
2023-08-15T16:46:46.859Z,60.20
2023-08-15T16:49:13.677Z,60.10
2023-08-15T16:51:41.639Z,60.20
2023-08-15T16:54:08.321Z,59.90
2023-08-15T16:56:34.981Z,59.60
2023-08-15T16:59:01.622Z,59.10
2023-08-15T17:01:28.451Z,59.50
2023-08-15T17:03:55.278Z,59.20
2023-08-15T17:06:22.033Z,59.20
2023-08-15T17:08:48.837Z,59.50
2023-08-15T17:11:15.626Z,59.50
2023-08-15T17:13:44.246Z,59.70
2023-08-15T17:16:12.253Z,59.10
2023-08-15T17:18:39.026Z,59.40
2023-08-15T17:21:05.758Z,59.30
2023-08-15T17:23:32.529Z,59.10
2023-08-15T17:25:59.437Z,58.50
2023-08-15T17:28:26.095Z,58.80
2023-08-15T17:30:52.927Z,58.60
2023-08-15T17:33:19.709Z,58.60
2023-08-15T17:35:46.634Z,58.70
2023-08-15T17:38:13.428Z,58.60
2023-08-15T17:40:40.240Z,58.60
2023-08-15T17:43:07.049Z,58.70
2023-08-15T17:45:33.802Z,58.80
2023-08-15T17:48:00.615Z,58.50
2023-08-15T17:50:27.426Z,59.10
2023-08-15T17:52:54.201Z,59.20
2023-08-15T17:55:20.937Z,59.60
2023-08-15T17:57:48.332Z,59.50
2023-08-15T18:00:15.680Z,59.40
2023-08-15T18:02:42.426Z,59.60
2023-08-15T18:05:11.755Z,59.90
2023-08-15T18:07:38.856Z,59.60
2023-08-15T18:10:06.010Z,60.10
2023-08-15T18:12:33.620Z,60.00
2023-08-15T18:15:00.368Z,60.00
2023-08-15T18:17:27.142Z,60.50
2023-08-15T18:19:54.420Z,60.40
2023-08-15T18:22:21.364Z,60.10
2023-08-15T18:24:48.268Z,60.50
2023-08-15T18:27:15.018Z,60.50
2023-08-15T18:29:42.084Z,60.90
2023-08-15T18:32:09.070Z,60.80
2023-08-15T18:34:35.880Z,60.60
2023-08-15T18:37:02.624Z,60.80
2023-08-15T18:39:29.393Z,60.90
2023-08-15T18:41:56.168Z,61.10
2023-08-15T18:44:22.852Z,61.10
2023-08-15T18:46:51.425Z,61.20
2023-08-15T18:49:19.427Z,61.80
2023-08-15T18:51:46.130Z,61.70
2023-08-15T18:54:12.848Z,61.60
2023-08-15T18:56:39.609Z,61.80
2023-08-15T18:59:06.341Z,61.80
2023-08-15T19:01:33.141Z,62.10
2023-08-15T19:03:59.909Z,62.60
2023-08-15T19:06:26.601Z,62.70
2023-08-15T19:08:53.258Z,62.80
2023-08-15T19:11:19.995Z,62.90
2023-08-15T19:13:46.678Z,63.20
2023-08-15T19:16:13.490Z,63.50
2023-08-15T19:18:40.245Z,63.70
2023-08-15T19:21:07.076Z,63.80
2023-08-15T19:23:33.925Z,64.10
2023-08-15T19:26:00.620Z,64.30
2023-08-15T19:28:28.429Z,64.70
2023-08-15T19:30:55.271Z,65.10
2023-08-15T19:33:21.988Z,65.40
2023-08-15T19:35:48.881Z,65.60
2023-08-15T19:38:15.655Z,65.80
2023-08-15T19:40:42.700Z,65.90
2023-08-15T19:43:09.500Z,66.10
2023-08-15T19:45:36.245Z,66.50
2023-08-15T19:48:03.150Z,66.80
2023-08-15T19:50:30.521Z,67.00
2023-08-15T19:52:57.377Z,67.10
2023-08-15T19:55:24.281Z,67.40
2023-08-15T19:57:50.971Z,67.50
2023-08-15T20:00:18.194Z,67.80
2023-08-15T20:02:45.405Z,67.90
2023-08-15T20:05:12.338Z,68.50
2023-08-15T20:07:39.603Z,69.60
2023-08-15T20:10:11.767Z,68.90
2023-08-15T20:12:39.372Z,69.20
2023-08-15T20:15:06.786Z,69.50
2023-08-15T20:17:33.666Z,69.60
2023-08-15T20:20:00.899Z,70.10
2023-08-15T20:22:27.864Z,70.10
2023-08-15T20:24:55.902Z,70.30
2023-08-15T20:27:22.690Z,70.40
2023-08-15T20:29:57.272Z,70.80
2023-08-15T20:32:24.595Z,70.90
2023-08-15T20:34:51.862Z,71.00
2023-08-15T20:37:18.623Z,71.00
2023-08-15T20:39:45.472Z,71.20
2023-08-15T20:42:12.553Z,71.20
2023-08-15T20:44:39.247Z,71.50
2023-08-15T20:47:06.074Z,71.70
2023-08-15T20:49:32.824Z,72.10
2023-08-15T20:52:01.419Z,72.10
2023-08-15T20:54:29.472Z,72.30
2023-08-15T20:56:56.271Z,72.30
2023-08-15T20:59:22.994Z,72.40
2023-08-15T21:01:52.878Z,72.40
2023-08-15T21:04:19.685Z,72.50
2023-08-15T21:06:46.415Z,73.00
2023-08-15T21:09:13.184Z,73.00
2023-08-15T21:11:39.922Z,73.10
2023-08-15T21:14:06.624Z,73.00
2023-08-15T21:16:33.376Z,73.30
2023-08-15T21:19:00.193Z,74.20
2023-08-15T21:21:26.915Z,73.80
2023-08-15T21:23:53.893Z,74.20
2023-08-15T21:26:20.626Z,74.40
2023-08-15T21:28:47.386Z,74.30
2023-08-15T21:31:14.216Z,74.50
2023-08-15T21:33:40.995Z,74.60
2023-08-15T21:36:07.839Z,74.90
2023-08-15T21:38:34.589Z,75.10
2023-08-15T21:41:01.276Z,75.00
2023-08-15T21:43:28.625Z,75.10
2023-08-15T21:45:55.437Z,75.20
2023-08-15T21:48:23.023Z,75.40
2023-08-15T21:50:52.674Z,75.60
2023-08-15T21:53:19.498Z,76.00
2023-08-15T21:55:46.345Z,76.20
2023-08-15T21:58:13.106Z,76.00
2023-08-15T22:00:43.785Z,76.40
2023-08-15T22:03:10.819Z,76.40
2023-08-15T22:05:37.578Z,76.70
2023-08-15T22:08:04.736Z,76.80
2023-08-15T22:10:31.509Z,76.90
2023-08-15T22:12:58.387Z,76.90
2023-08-15T22:15:28.054Z,77.10
2023-08-15T22:18:12.609Z,77.30
2023-08-15T22:20:41.678Z,77.40
2023-08-15T22:23:08.533Z,77.30
2023-08-15T22:25:35.205Z,77.40
2023-08-15T22:28:01.899Z,77.50
2023-08-15T22:30:28.788Z,77.50
2023-08-15T22:32:56.637Z,77.90
2023-08-15T22:35:39.229Z,77.90
2023-08-15T22:38:06.140Z,77.70
2023-08-15T22:40:33.042Z,78.00
2023-08-15T22:42:59.770Z,78.00
2023-08-15T22:45:26.680Z,78.10
2023-08-15T22:47:53.739Z,78.30
2023-08-15T22:50:20.507Z,78.50
2023-08-15T22:52:47.290Z,78.60
2023-08-15T22:55:14.105Z,78.50
2023-08-15T22:57:40.875Z,78.90
2023-08-15T23:00:08.156Z,79.10
2023-08-15T23:02:34.843Z,79.10
2023-08-15T23:05:01.551Z,78.90
2023-08-15T23:07:28.192Z,78.80
2023-08-15T23:09:54.968Z,78.60
2023-08-15T23:12:21.736Z,78.50
2023-08-15T23:14:48.995Z,78.90
2023-08-15T23:17:15.681Z,79.20
2023-08-15T23:19:42.393Z,79.20
2023-08-15T23:22:09.129Z,79.10
2023-08-15T23:24:35.861Z,78.70
2023-08-15T23:27:02.708Z,78.50
2023-08-15T23:29:29.509Z,79.20
2023-08-15T23:31:57.007Z,79.20
2023-08-15T23:34:23.753Z,79.20
2023-08-15T23:36:50.853Z,79.30
2023-08-15T23:39:21.917Z,79.20
2023-08-15T23:41:49.594Z,79.20
2023-08-15T23:44:19.589Z,79.20
2023-08-15T23:46:47.545Z,79.00
2023-08-15T23:49:14.306Z,79.20
2023-08-15T23:51:40.984Z,79.30
2023-08-15T23:54:08.178Z,79.30
2023-08-15T23:56:34.956Z,79.20
2023-08-15T23:59:01.676Z,79.50
